Time;durP1;ratioP1;P1;durP2;ratioP2;P2;SDS_P1;SDS_P2;PMS_P1;PMS_P2;Temp;Humidity;BMP_temperature;BMP_pressure;BME280_temperature;BME280_humidity;BME280_pressure;Samples;Min_cycle;Max_cycle;Signal;HPM_P1;HPM_P2
2022/01/03 00:00:29;;;;;;;6.90;3.23;;;8.00;99.90;;;;;;5018117;28;20037;-91
2022/01/03 00:02:58;;;;;;;7.93;2.75;;;8.00;99.90;;;;;;5017908;28;20037;-93
2022/01/03 00:05:24;;;;;;;7.43;2.60;;;8.00;99.90;;;;;;5014945;28;20033;-94
2022/01/03 00:07:50;;;;;;;7.07;2.47;;;8.10;99.90;;;;;;4984502;28;20047;-93
2022/01/03 00:10:17;;;;;;;5.38;2.70;;;8.10;99.90;;;;;;5002183;28;20037;-94
2022/01/03 00:12:43;;;;;;;6.72;2.67;;;8.20;99.90;;;;;;5018717;28;20041;-93
2022/01/03 00:15:15;;;;;;;8.77;2.60;;;8.20;99.90;;;;;;5001613;28;20533;-93
2022/01/03 00:17:42;;;;;;;11.73;2.70;;;8.30;99.90;;;;;;5012494;28;20493;-94
2022/01/03 00:20:09;;;;;;;13.13;3.25;;;8.30;99.90;;;;;;5015686;28;20079;-93
2022/01/03 00:22:48;;;;;;;13.98;2.50;;;8.30;99.90;;;;;;5002684;28;20068;-93
2022/01/03 00:25:17;;;;;;;10.73;2.33;;;8.30;99.90;;;;;;5028629;28;20099;-93
2022/01/03 00:27:58;;;;;;;11.65;2.60;;;8.40;99.90;;;;;;5000449;28;20123;-94
2022/01/03 00:30:24;;;;;;;18.58;2.88;;;8.40;99.90;;;;;;5013735;28;20036;-93
2022/01/03 00:32:51;;;;;;;19.65;3.70;;;8.30;99.90;;;;;;5013993;28;20041;-92
2022/01/03 00:35:19;;;;;;;17.45;3.88;;;8.40;99.90;;;;;;5016386;28;20530;-93
2022/01/03 00:37:46;;;;;;;20.38;4.00;;;8.40;99.90;;;;;;5018402;28;20079;-94
2022/01/03 00:40:14;;;;;;;20.15;3.90;;;8.50;99.90;;;;;;5000853;28;20037;-94
2022/01/03 00:42:40;;;;;;;17.40;3.45;;;8.60;99.90;;;;;;5009966;28;20049;-94
2022/01/03 00:45:07;;;;;;;14.52;3.35;;;8.60;99.90;;;;;;5009492;28;20045;-94
2022/01/03 00:47:34;;;;;;;18.70;4.13;;;8.70;99.90;;;;;;5018452;28;20045;-92
2022/01/03 00:50:10;;;;;;;23.65;4.40;;;8.70;99.90;;;;;;5008450;28;20033;-94
2022/01/03 00:52:36;;;;;;;20.45;4.13;;;8.70;99.90;;;;;;5016806;28;20029;-94
2022/01/03 00:55:04;;;;;;;18.67;4.20;;;8.80;99.90;;;;;;5018141;28;20098;-92
2022/01/03 00:58:01;;;;;;;24.13;3.83;;;8.80;99.90;;;;;;5012041;28;20036;-93
2022/01/03 01:00:32;;;;;;;18.15;3.85;;;8.80;99.90;;;;;;5012625;28;20132;-95
2022/01/03 01:03:15;;;;;;;18.52;4.00;;;8.80;99.90;;;;;;5018553;28;20044;-94
2022/01/03 01:05:46;;;;;;;9.93;3.13;;;9.00;99.90;;;;;;5014863;28;20504;-94
2022/01/03 01:08:17;;;;;;;15.38;3.42;;;8.90;99.90;;;;;;5015150;28;20071;-94
2022/01/03 01:10:44;;;;;;;12.55;3.35;;;8.90;99.90;;;;;;5018108;28;20119;-95
2022/01/03 01:13:12;;;;;;;17.15;3.78;;;8.90;99.90;;;;;;5015785;28;20486;-94
2022/01/03 01:15:39;;;;;;;15.88;3.63;;;8.90;99.90;;;;;;5005213;28;20033;-93
2022/01/03 01:18:05;;;;;;;10.93;3.20;;;8.90;99.90;;;;;;5033973;28;20085;-92
2022/01/03 01:20:33;;;;;;;17.58;3.75;;;9.00;99.90;;;;;;5010312;28;20498;-94
2022/01/03 01:23:00;;;;;;;23.15;3.83;;;9.30;99.90;;;;;;5002225;28;20485;-94
2022/01/03 01:28:00;;;;;;;23.90;4.07;;;9.00;99.90;;;;;;5017371;28;20528;-95
2022/01/03 01:30:28;;;;;;;20.70;4.18;;;9.00;99.90;;;;;;5007568;28;20037;-94
2022/01/03 01:33:04;;;;;;;19.88;4.13;;;9.00;99.90;;;;;;5013911;28;20509;-95
2022/01/03 01:35:53;;;;;;;22.35;4.00;;;9.00;99.90;;;;;;5007317;28;20041;-94
2022/01/03 01:38:21;;;;;;;12.90;3.70;;;9.00;99.90;;;;;;5018304;28;20045;-95
2022/01/03 01:40:58;;;;;;;16.80;4.13;;;9.10;99.90;;;;;;5019045;28;20036;-95
2022/01/03 01:43:45;;;;;;;23.25;3.53;;;9.10;99.90;;;;;;5003259;28;20047;-95
2022/01/03 01:46:16;;;;;;;19.25;3.63;;;9.10;99.90;;;;;;5022599;28;20481;-95
2022/01/03 01:48:46;;;;;;;15.77;3.97;;;9.10;99.90;;;;;;5020681;28;20041;-95
2022/01/03 01:51:14;;;;;;;14.90;3.83;;;9.10;99.90;;;;;;5022255;28;20064;-95
2022/01/03 01:53:43;;;;;;;20.30;4.25;;;9.10;99.90;;;;;;5008490;28;20040;-95
2022/01/03 01:56:21;;;;;;;13.52;3.38;;;9.10;99.90;;;;;;5000214;28;20071;-95
2022/01/03 01:59:14;;;;;;;19.92;3.67;;;9.10;99.90;;;;;;5010053;28;20068;-95
2022/01/03 02:01:50;;;;;;;18.85;4.80;;;9.10;99.90;;;;;;5014210;28;20041;-96
2022/01/03 02:04:24;;;;;;;16.08;3.70;;;9.10;99.90;;;;;;5014256;28;20103;-95
2022/01/03 02:06:57;;;;;;;21.85;4.00;;;9.20;99.90;;;;;;5037434;28;20041;-94
2022/01/03 02:09:41;;;;;;;24.90;3.50;;;9.10;99.90;;;;;;5016234;28;20045;-95
2022/01/03 02:12:16;;;;;;;15.95;3.85;;;9.20;99.90;;;;;;5017717;28;20076;-95
2022/01/03 02:14:43;;;;;;;22.02;3.17;;;9.20;99.90;;;;;;5017122;28;20120;-95
2022/01/03 02:17:09;;;;;;;19.08;3.80;;;10.00;99.90;;;;;;4995601;28;20133;-94
2022/01/03 02:19:37;;;;;;;18.63;3.40;;;9.20;99.90;;;;;;5013587;28;20041;-94
2022/01/03 02:22:03;;;;;;;17.77;3.85;;;9.20;99.90;;;;;;4998704;28;20102;-94
2022/01/03 02:24:29;;;;;;;18.38;3.50;;;9.20;99.90;;;;;;5031279;28;20037;-95
2022/01/03 02:26:55;;;;;;;18.05;3.50;;;9.20;99.90;;;;;;5014292;28;20041;-94
2022/01/03 02:29:21;;;;;;;23.42;3.72;;;9.20;99.90;;;;;;5004914;28;20053;-95
2022/01/03 02:31:47;;;;;;;14.50;3.00;;;9.20;99.90;;;;;;5013883;28;20065;-96
2022/01/03 02:34:13;;;;;;;20.05;3.75;;;9.20;99.90;;;;;;5015061;28;20042;-94
2022/01/03 02:36:43;;;;;;;13.02;2.78;;;9.20;99.90;;;;;;4980779;28;20060;-94
2022/01/03 02:39:09;;;;;;;23.45;4.00;;;9.20;99.90;;;;;;5027672;28;20038;-95
2022/01/03 02:41:35;;;;;;;16.33;3.60;;;9.20;99.90;;;;;;5016465;28;20030;-95
2022/01/03 02:44:01;;;;;;;14.02;3.17;;;9.20;99.90;;;;;;5001851;28;20129;-95
2022/01/03 02:46:26;;;;;;;17.15;3.25;;;9.20;99.90;;;;;;4998563;28;20038;-95
2022/01/03 02:48:52;;;;;;;19.90;3.60;;;9.20;99.90;;;;;;4986072;28;20034;-95
2022/01/03 02:51:18;;;;;;;17.58;3.75;;;9.20;99.90;;;;;;5012774;28;20455;-96
2022/01/03 02:53:44;;;;;;;20.10;3.63;;;9.20;99.90;;;;;;5016492;28;20088;-96
2022/01/03 02:56:10;;;;;;;21.48;4.10;;;9.10;99.90;;;;;;5001005;28;20034;-96
2022/01/03 02:58:36;;;;;;;16.52;3.17;;;9.10;99.90;;;;;;5010101;28;20069;-94
2022/01/03 03:01:02;;;;;;;17.92;3.78;;;9.10;99.90;;;;;;5003729;28;20371;-95
2022/01/03 03:03:28;;;;;;;24.23;3.63;;;9.10;99.90;;;;;;5012412;28;20049;-94
2022/01/03 03:05:54;;;;;;;19.65;4.32;;;9.10;99.90;;;;;;5005074;28;20041;-94
2022/01/03 03:08:19;;;;;;;17.02;3.60;;;9.00;99.90;;;;;;4983615;28;20034;-94
2022/01/03 03:10:45;;;;;;;8.98;3.45;;;9.00;99.90;;;;;;5019074;28;20030;-94
2022/01/03 03:13:11;;;;;;;13.93;3.55;;;9.00;99.90;;;;;;5029118;28;20026;-94
2022/01/03 03:15:38;;;;;;;21.08;3.83;;;9.00;99.90;;;;;;5039342;28;20034;-95
2022/01/03 03:18:04;;;;;;;17.90;3.55;;;9.00;99.90;;;;;;5017206;28;20057;-96
2022/01/03 03:20:32;;;;;;;19.67;3.30;;;9.00;99.90;;;;;;5015501;28;20240;-96
2022/01/03 03:22:59;;;;;;;10.65;3.15;;;9.00;99.90;;;;;;4995457;28;20033;-95
2022/01/03 03:25:27;;;;;;;17.00;3.22;;;8.90;99.90;;;;;;5018434;28;20038;-95
2022/01/03 03:28:00;;;;;;;17.35;3.30;;;8.90;99.90;;;;;;5038473;28;20037;-96
2022/01/03 03:30:30;;;;;;;16.23;3.83;;;8.90;99.90;;;;;;5015269;28;20025;-95
2022/01/03 03:33:05;;;;;;;19.88;4.97;;;8.90;99.90;;;;;;5023579;28;20398;-95
2022/01/03 03:35:31;;;;;;;17.42;3.58;;;8.90;99.90;;;;;;5011981;28;20034;-95
2022/01/03 03:37:56;;;;;;;17.75;3.53;;;8.90;99.90;;;;;;4995421;28;20494;-95
2022/01/03 03:40:22;;;;;;;22.15;4.18;;;8.80;99.90;;;;;;5000472;28;20068;-95
2022/01/03 03:42:48;;;;;;;12.30;3.05;;;9.30;99.90;;;;;;5002529;28;20041;-96
2022/01/03 03:45:15;;;;;;;28.02;3.00;;;8.80;99.90;;;;;;5007063;28;20551;-96
2022/01/03 03:47:41;;;;;;;13.60;3.67;;;8.80;99.90;;;;;;5016575;28;20050;-95
2022/01/03 03:50:08;;;;;;;18.05;3.28;;;8.80;99.90;;;;;;5009767;28;20041;-95
2022/01/03 03:52:34;;;;;;;17.85;3.67;;;8.80;99.90;;;;;;4995362;28;20038;-95
2022/01/03 03:55:00;;;;;;;21.05;4.03;;;8.80;99.90;;;;;;5000670;28;20115;-96
2022/01/03 03:57:26;;;;;;;19.67;4.30;;;8.70;99.90;;;;;;4990991;28;20048;-95
2022/01/03 03:59:52;;;;;;;22.40;4.50;;;8.70;99.90;;;;;;5000249;28;20621;-95
2022/01/03 04:02:17;;;;;;;19.70;3.88;;;8.70;99.90;;;;;;4978780;28;20070;-95
2022/01/03 04:04:43;;;;;;;24.02;4.65;;;8.70;99.90;;;;;;5002101;28;20060;-96
2022/01/03 04:07:09;;;;;;;22.08;3.75;;;8.70;99.90;;;;;;4999242;28;20041;-95
2022/01/03 04:09:35;;;;;;;24.60;4.30;;;8.80;99.90;;;;;;5010641;28;20061;-95
2022/01/03 04:12:00;;;;;;;16.50;3.92;;;8.70;99.90;;;;;;4988250;28;20140;-96
2022/01/03 04:14:26;;;;;;;20.48;4.22;;;8.70;99.90;;;;;;5012064;28;20040;-96
2022/01/03 04:16:52;;;;;;;20.27;4.35;;;8.90;99.90;;;;;;4986756;28;20038;-96
2022/01/03 04:19:18;;;;;;;19.55;4.10;;;8.80;99.90;;;;;;5005196;28;20041;-96
2022/01/03 04:21:43;;;;;;;20.73;4.03;;;8.70;99.90;;;;;;5016927;28;20049;-95
2022/01/03 04:24:11;;;;;;;26.55;4.43;;;8.70;99.90;;;;;;4995289;28;20055;-96
2022/01/03 04:26:38;;;;;;;21.23;3.97;;;8.70;99.90;;;;;;5023904;28;20033;-96
2022/01/03 04:29:05;;;;;;;19.27;5.60;;;8.70;99.90;;;;;;5001062;28;20124;-95
2022/01/03 04:31:31;;;;;;;19.92;4.07;;;8.70;99.90;;;;;;5013542;28;20064;-95
2022/01/03 04:33:57;;;;;;;18.25;4.22;;;8.80;99.90;;;;;;5004859;28;20033;-96
2022/01/03 04:36:24;;;;;;;20.02;3.88;;;8.80;99.90;;;;;;5012068;28;20128;-95
2022/01/03 04:38:50;;;;;;;19.73;3.85;;;8.80;99.90;;;;;;5026288;28;20041;-96
2022/01/03 04:41:16;;;;;;;21.30;3.80;;;8.80;99.90;;;;;;5036483;28;20116;-96
2022/01/03 04:43:42;;;;;;;23.75;4.13;;;8.80;99.90;;;;;;5004502;28;20040;-96
2022/01/03 04:46:08;;;;;;;21.38;4.53;;;8.80;99.90;;;;;;5007780;28;20044;-96
2022/01/03 04:48:36;;;;;;;20.67;3.22;;;8.90;99.90;;;;;;5024612;28;20046;-96
2022/01/03 04:51:02;;;;;;;21.25;4.57;;;8.90;99.90;;;;;;5005495;28;20513;-95
2022/01/03 04:53:28;;;;;;;26.20;5.00;;;8.90;99.90;;;;;;5025025;28;20036;-96
2022/01/03 04:55:54;;;;;;;22.17;4.28;;;9.00;99.90;;;;;;4992475;28;20095;-96
2022/01/03 04:58:20;;;;;;;20.88;4.35;;;8.90;99.90;;;;;;5016745;28;20038;-96
2022/01/03 05:00:47;;;;;;;23.77;3.88;;;8.90;99.90;;;;;;5023303;28;20056;-96
2022/01/03 05:03:13;;;;;;;24.92;4.45;;;8.90;99.90;;;;;;5018130;28;20076;-96
2022/01/03 05:05:39;;;;;;;20.85;4.88;;;8.90;99.90;;;;;;5025035;28;20068;-96
2022/01/03 05:08:05;;;;;;;14.70;3.75;;;9.10;99.90;;;;;;5003823;28;20045;-96
2022/01/03 05:10:31;;;;;;;21.85;4.35;;;8.90;99.90;;;;;;5010925;28;20497;-96
2022/01/03 05:12:56;;;;;;;22.88;4.82;;;9.00;99.90;;;;;;4992696;28;20033;-96
2022/01/03 05:15:22;;;;;;;20.98;3.83;;;9.00;99.90;;;;;;5005989;28;20029;-96
2022/01/03 05:17:48;;;;;;;21.05;4.70;;;9.00;99.90;;;;;;4985509;28;20065;-96
2022/01/03 05:20:14;;;;;;;23.60;4.25;;;9.00;99.90;;;;;;5001607;28;20045;-96
2022/01/03 05:22:40;;;;;;;25.38;4.63;;;9.00;99.90;;;;;;5014434;28;20052;-96
2022/01/03 05:25:07;;;;;;;13.45;4.13;;;8.90;99.90;;;;;;5018137;28;20049;-96
2022/01/03 05:27:34;;;;;;;25.58;5.53;;;8.90;99.90;;;;;;5001317;28;20043;-95
2022/01/03 05:30:01;;;;;;;25.92;4.55;;;9.00;99.90;;;;;;5012850;28;20037;-96
2022/01/03 05:32:27;;;;;;;19.77;4.18;;;9.10;99.90;;;;;;4995513;28;20033;-96
2022/01/03 05:34:53;;;;;;;27.42;4.88;;;8.90;99.90;;;;;;5012695;28;20029;-96
2022/01/03 05:37:19;;;;;;;22.30;4.75;;;9.00;99.90;;;;;;5015632;28;20532;-96
2022/01/03 05:39:44;;;;;;;29.95;4.53;;;9.00;99.90;;;;;;5014134;28;20033;-96
2022/01/03 05:42:10;;;;;;;23.08;5.30;;;8.90;99.90;;;;;;4996140;28;20037;-96
2022/01/03 05:44:36;;;;;;;16.10;4.15;;;9.10;99.90;;;;;;5007284;28;20052;-96
2022/01/03 05:47:01;;;;;;;19.25;4.55;;;9.00;99.90;;;;;;4990026;28;20041;-95
2022/01/03 05:49:27;;;;;;;22.08;4.47;;;9.00;99.90;;;;;;4976298;28;20402;-95
2022/01/03 05:51:53;;;;;;;15.63;4.93;;;9.00;99.90;;;;;;5005417;28;20397;-96
2022/01/03 05:54:18;;;;;;;18.65;4.30;;;9.00;99.90;;;;;;5001206;28;20151;-95
2022/01/03 05:56:44;;;;;;;18.38;4.13;;;9.00;99.90;;;;;;4988776;28;20037;-94
2022/01/03 05:59:10;;;;;;;19.92;5.10;;;9.00;99.90;;;;;;4999243;28;20044;-96
2022/01/03 06:01:37;;;;;;;22.45;4.50;;;9.00;99.90;;;;;;4986790;28;20033;-95
2022/01/03 06:04:14;;;;;;;21.95;4.15;;;8.90;99.90;;;;;;4997273;28;20041;-95
2022/01/03 06:06:55;;;;;;;22.48;4.93;;;8.90;99.90;;;;;;5001039;28;20073;-96
2022/01/03 06:09:22;;;;;;;19.45;4.55;;;8.90;99.90;;;;;;5012282;28;20048;-94
2022/01/03 06:11:50;;;;;;;23.48;5.07;;;8.90;99.90;;;;;;4994882;28;20048;-94
2022/01/03 06:14:17;;;;;;;27.00;5.13;;;8.90;99.90;;;;;;5012973;28;20045;-95
2022/01/03 06:16:44;;;;;;;25.65;4.47;;;8.90;99.90;;;;;;5005416;28;20044;-95
2022/01/03 06:19:12;;;;;;;26.92;4.82;;;8.90;99.90;;;;;;5010159;28;20061;-95
2022/01/03 06:21:40;;;;;;;20.83;4.03;;;8.80;99.90;;;;;;5021854;28;20048;-96
2022/01/03 06:24:15;;;;;;;18.88;3.50;;;9.60;99.90;;;;;;5022008;28;20045;-94
2022/01/03 06:26:42;;;;;;;29.00;4.50;;;8.80;99.90;;;;;;5016370;28;20076;-96
2022/01/03 06:29:10;;;;;;;22.60;4.68;;;8.70;99.90;;;;;;5005497;28;20087;-96
2022/01/03 06:31:36;;;;;;;22.38;5.25;;;8.70;99.90;;;;;;5020878;28;20041;-96
2022/01/03 06:34:02;;;;;;;26.90;5.50;;;8.70;99.90;;;;;;5021909;28;20116;-96
2022/01/03 06:36:28;;;;;;;22.00;5.65;;;8.70;99.90;;;;;;5003439;28;20091;-96
2022/01/03 06:38:55;;;;;;;21.60;5.03;;;8.70;99.90;;;;;;5002325;28;20047;-96
2022/01/03 06:41:20;;;;;;;22.83;4.38;;;8.60;99.90;;;;;;5021309;28;20041;-96
2022/01/03 06:43:46;;;;;;;22.90;4.55;;;8.60;99.90;;;;;;5015138;28;20049;-96
2022/01/03 06:46:12;;;;;;;27.63;4.90;;;8.60;99.90;;;;;;5016912;28;20044;-96
2022/01/03 06:48:37;;;;;;;25.08;5.03;;;8.60;99.90;;;;;;4975393;28;20052;-96
2022/01/03 06:51:04;;;;;;;29.45;5.50;;;8.60;99.90;;;;;;5001341;28;20033;-96
2022/01/03 06:53:29;;;;;;;30.35;5.43;;;8.50;99.90;;;;;;5011112;28;20033;-96
2022/01/03 06:55:55;;;;;;;34.75;6.05;;;8.50;99.90;;;;;;5012512;28;20090;-96
2022/01/03 06:58:21;;;;;;;22.45;4.82;;;8.50;99.90;;;;;;5005203;28;20041;-95
2022/01/03 07:00:47;;;;;;;24.70;4.82;;;8.50;99.90;;;;;;5003263;28;20047;-95
2022/01/03 07:03:12;;;;;;;30.83;4.78;;;8.50;99.90;;;;;;5007538;28;20041;-96
2022/01/03 07:05:38;;;;;;;25.73;5.40;;;8.50;99.90;;;;;;5013732;28;20041;-96
2022/01/03 07:08:04;;;;;;;34.45;5.75;;;8.50;99.90;;;;;;5017334;28;20049;-94
2022/01/03 07:10:30;;;;;;;28.40;4.57;;;8.60;99.90;;;;;;5024141;28;20060;-95
2022/01/03 07:12:56;;;;;;;20.92;4.22;;;8.60;99.90;;;;;;5035364;28;20020;-95
2022/01/03 07:20:53;;;;;;;24.27;5.60;;;8.70;99.90;;;;;;5038904;28;20047;-95
2022/01/03 07:23:19;;;;;;;34.50;5.10;;;8.70;99.90;;;;;;5024221;28;20025;-86
2022/01/03 07:25:46;;;;;;;30.77;5.70;;;8.80;99.90;;;;;;5031315;28;20056;-84
2022/01/03 07:28:16;;;;;;;27.77;5.47;;;8.80;99.90;;;;;;5033890;28;22003;-83
2022/01/03 07:30:42;;;;;;;33.42;5.75;;;8.80;99.90;;;;;;5050415;28;20069;-86
2022/01/03 07:33:08;;;;;;;27.38;5.30;;;8.80;99.90;;;;;;5038258;28;20037;-86
2022/01/03 07:35:35;;;;;;;25.50;6.00;;;8.80;99.90;;;;;;5025626;28;20025;-85
2022/01/03 07:38:02;;;;;;;31.45;5.90;;;8.80;99.90;;;;;;5027458;28;20037;-89
2022/01/03 07:40:29;;;;;;;24.77;5.05;;;8.90;99.90;;;;;;5010988;28;20045;-88
2022/01/03 07:42:55;;;;;;;25.10;6.10;;;9.20;99.90;;;;;;5008400;28;20063;-88
2022/01/03 07:45:22;;;;;;;27.98;5.63;;;8.90;99.90;;;;;;5006104;28;20068;-85
2022/01/03 07:47:47;;;;;;;25.20;4.97;;;8.90;99.90;;;;;;4980915;28;20044;-85
2022/01/03 07:50:14;;;;;;;34.20;5.75;;;9.00;99.90;;;;;;5004306;28;20033;-85
2022/01/03 07:52:40;;;;;;;25.60;5.45;;;9.00;99.90;;;;;;4990318;28;20048;-86
2022/01/03 07:55:07;;;;;;;36.03;5.55;;;9.00;99.90;;;;;;5023761;28;20041;-85
2022/01/03 07:57:33;;;;;;;29.70;4.82;;;9.00;99.90;;;;;;5007053;28;20548;-86
2022/01/03 07:59:59;;;;;;;27.30;5.50;;;9.10;99.90;;;;;;4981185;28;20901;-86
2022/01/03 08:02:25;;;;;;;29.23;5.50;;;9.10;99.90;;;;;;5006459;28;20422;-86
2022/01/03 08:04:51;;;;;;;27.92;5.60;;;9.10;99.90;;;;;;4981976;28;20056;-86
2022/01/03 08:07:17;;;;;;;21.17;5.63;;;9.20;99.90;;;;;;4988163;28;20134;-86
2022/01/03 08:09:43;;;;;;;31.58;6.53;;;9.10;99.90;;;;;;5007281;28;20617;-87
2022/01/03 08:12:10;;;;;;;27.92;5.32;;;9.20;99.90;;;;;;4997968;28;20044;-87
2022/01/03 08:14:35;;;;;;;27.25;5.70;;;9.10;99.90;;;;;;4994628;28;20072;-89
2022/01/03 08:17:01;;;;;;;32.30;5.03;;;9.20;99.90;;;;;;4995883;28;20068;-88
2022/01/03 08:19:27;;;;;;;27.92;4.93;;;9.10;99.90;;;;;;4983800;28;20045;-88
2022/01/03 08:21:53;;;;;;;24.67;4.18;;;9.10;99.90;;;;;;4992117;28;20038;-88
2022/01/03 08:24:18;;;;;;;22.45;5.13;;;9.10;99.90;;;;;;4980654;28;20493;-88
2022/01/03 08:26:44;;;;;;;26.25;5.05;;;9.20;99.90;;;;;;5002313;28;20090;-88
2022/01/03 08:29:10;;;;;;;26.75;5.20;;;9.10;99.90;;;;;;4999748;28;20513;-86
2022/01/03 08:31:39;;;;;;;24.63;4.82;;;9.20;99.90;;;;;;5000358;28;20039;-89
2022/01/03 08:34:05;;;;;;;26.20;5.28;;;9.30;99.90;;;;;;4997965;28;20037;-90
2022/01/03 08:36:34;;;;;;;25.50;4.95;;;9.30;99.90;;;;;;5004354;28;20049;-93
2022/01/03 08:38:59;;;;;;;21.45;5.00;;;9.30;99.90;;;;;;4985253;28;20502;-92
2022/01/03 08:41:26;;;;;;;24.92;5.22;;;9.80;99.90;;;;;;4981396;28;20063;-91
2022/01/03 08:43:53;;;;;;;28.73;5.57;;;9.30;99.90;;;;;;5001423;28;20092;-89
2022/01/03 08:46:19;;;;;;;21.85;4.63;;;9.30;99.90;;;;;;5002498;28;20110;-88
2022/01/03 08:48:45;;;;;;;30.88;4.28;;;9.40;99.90;;;;;;4998448;28;20048;-89
2022/01/03 08:51:11;;;;;;;28.27;5.07;;;9.40;99.90;;;;;;4966206;28;20052;-90
2022/01/03 08:53:37;;;;;;;22.60;5.50;;;9.40;99.90;;;;;;4999168;28;20080;-96
2022/01/03 08:56:04;;;;;;;16.15;4.18;;;9.40;99.90;;;;;;5007702;28;20044;-96
2022/01/03 08:58:30;;;;;;;22.73;4.43;;;9.40;99.90;;;;;;4984195;28;20505;-92
2022/01/03 09:00:56;;;;;;;21.40;4.35;;;9.50;99.90;;;;;;5023049;28;20123;-96
2022/01/03 09:03:22;;;;;;;26.17;4.93;;;9.40;99.90;;;;;;5026426;28;20048;-95
2022/01/03 09:05:49;;;;;;;25.48;4.93;;;9.50;99.90;;;;;;4993643;28;20033;-96
2022/01/03 09:08:16;;;;;;;21.58;4.60;;;9.50;99.90;;;;;;4990331;28;20029;-96
2022/01/03 09:10:42;;;;;;;22.33;3.97;;;9.50;99.90;;;;;;5009812;28;20056;-96
2022/01/03 09:13:08;;;;;;;22.77;5.38;;;9.50;99.90;;;;;;5027389;28;20029;-95
2022/01/03 09:15:34;;;;;;;20.88;3.95;;;9.50;99.90;;;;;;4995222;28;20507;-96
2022/01/03 09:18:00;;;;;;;24.45;4.80;;;9.50;99.90;;;;;;4989014;28;20048;-96
2022/01/03 09:20:25;;;;;;;22.40;4.60;;;9.50;99.90;;;;;;4986856;28;20099;-94
2022/01/03 09:22:55;;;;;;;27.63;4.97;;;9.50;99.90;;;;;;5007143;28;20124;-95
2022/01/03 09:30:46;;;;;;;23.88;4.38;;;9.60;99.90;;;;;;5020396;28;20106;-93
2022/01/03 09:33:12;;;;;;;20.73;4.18;;;9.60;99.90;;;;;;4975882;28;20033;-93
2022/01/03 09:35:39;;;;;;;26.60;5.10;;;9.70;99.90;;;;;;5003601;28;20045;-95
2022/01/03 09:38:05;;;;;;;23.20;4.55;;;9.70;99.90;;;;;;4990494;28;20040;-91
2022/01/03 09:40:31;;;;;;;28.08;5.30;;;9.70;99.90;;;;;;4999106;28;20056;-90
2022/01/03 09:42:59;;;;;;;19.63;4.35;;;9.70;99.90;;;;;;4971099;28;20036;-90
2022/01/03 09:45:28;;;;;;;18.30;3.97;;;9.80;99.90;;;;;;5015184;28;20066;-89
2022/01/03 09:47:56;;;;;;;18.52;4.35;;;9.80;99.90;;;;;;5005191;28;20157;-90
2022/01/03 09:50:23;;;;;;;21.88;4.43;;;9.90;99.90;;;;;;4995571;28;20045;-91
2022/01/03 09:52:51;;;;;;;22.30;5.85;;;9.90;99.90;;;;;;4994976;28;20044;-89
2022/01/03 09:55:18;;;;;;;21.05;4.38;;;9.80;99.90;;;;;;4984502;28;20036;-89
2022/01/03 09:57:45;;;;;;;17.80;3.90;;;9.80;99.90;;;;;;4992500;28;20040;-88
2022/01/03 10:00:15;;;;;;;21.45;4.43;;;9.90;99.90;;;;;;4991442;28;20037;-88
2022/01/03 10:02:44;;;;;;;22.60;4.50;;;9.80;99.90;;;;;;4992180;28;20432;-90
2022/01/03 10:05:10;;;;;;;16.10;4.40;;;9.80;99.90;;;;;;4995121;28;20128;-88
2022/01/03 10:07:39;;;;;;;22.23;4.43;;;9.90;99.90;;;;;;5009368;28;20182;-88
2022/01/03 10:10:05;;;;;;;19.70;4.68;;;9.80;99.90;;;;;;4992766;28;20049;-87
2022/01/03 10:12:31;;;;;;;26.17;4.75;;;9.80;99.90;;;;;;4969624;28;20568;-88
2022/01/03 10:14:58;;;;;;;27.77;4.20;;;9.80;99.90;;;;;;5008508;28;20128;-86
2022/01/03 10:17:24;;;;;;;20.60;4.25;;;9.90;99.90;;;;;;4998064;28;20083;-85
2022/01/03 10:20:00;;;;;;;17.52;4.45;;;9.90;99.90;;;;;;4978325;28;20076;-85
2022/01/03 10:22:32;;;;;;;27.33;4.72;;;9.90;99.90;;;;;;4992351;28;20038;-86
2022/01/03 10:25:01;;;;;;;17.42;4.45;;;10.00;99.90;;;;;;5000367;28;20080;-86
2022/01/03 10:27:54;;;;;;;24.23;4.28;;;10.00;99.90;;;;;;4994883;28;20625;-86
2022/01/03 10:30:32;;;;;;;23.27;4.75;;;10.10;99.90;;;;;;5015155;28;20069;-86
2022/01/03 10:32:58;;;;;;;18.15;4.05;;;10.00;99.90;;;;;;4990389;28;20113;-86
2022/01/03 10:35:24;;;;;;;25.80;4.85;;;10.00;99.90;;;;;;5012198;28;20144;-87
2022/01/03 10:37:50;;;;;;;17.25;4.60;;;10.00;99.90;;;;;;4983645;28;20051;-86
2022/01/03 10:40:29;;;;;;;25.20;4.75;;;10.10;99.90;;;;;;4995366;28;20032;-86
2022/01/03 10:43:13;;;;;;;23.15;3.97;;;10.00;99.90;;;;;;4997538;28;20032;-90
2022/01/03 10:45:40;;;;;;;22.13;4.65;;;10.00;99.90;;;;;;5013674;28;20076;-86
2022/01/03 10:48:29;;;;;;;18.88;3.90;;;10.10;99.90;;;;;;4983542;28;20072;-84
2022/01/03 10:50:56;;;;;;;20.63;4.72;;;10.10;99.90;;;;;;4989154;28;20041;-84
2022/01/03 10:53:43;;;;;;;20.58;4.32;;;10.10;99.90;;;;;;5017606;28;20099;-84
2022/01/03 10:56:32;;;;;;;18.02;4.47;;;10.20;99.90;;;;;;5001746;28;20041;-84
2022/01/03 10:59:03;;;;;;;21.52;3.95;;;10.20;99.90;;;;;;5001205;28;20182;-85
2022/01/03 11:01:31;;;;;;;18.27;4.68;;;10.30;99.90;;;;;;4996808;28;20048;-85
2022/01/03 11:04:00;;;;;;;18.25;3.83;;;10.20;99.90;;;;;;5014853;28;20037;-85
2022/01/03 11:11:42;;;;;;;18.15;4.30;;;10.10;99.90;;;;;;5017846;28;20095;-87
2022/01/03 11:14:10;;;;;;;13.98;4.00;;;10.10;99.90;;;;;;5009895;28;20029;-85
2022/01/03 11:16:42;;;;;;;20.65;4.07;;;10.10;99.90;;;;;;5000768;28;20037;-85
2022/01/03 11:19:08;;;;;;;27.48;4.93;;;10.10;99.90;;;;;;4979701;28;20057;-86
2022/01/03 11:21:44;;;;;;;25.38;3.67;;;10.10;99.90;;;;;;4997856;28;20056;-84
2022/01/03 11:24:11;;;;;;;23.20;4.63;;;10.10;99.90;;;;;;4996882;28;20060;-84
2022/01/03 11:26:46;;;;;;;24.55;4.45;;;10.10;99.90;;;;;;4998151;28;20064;-85
2022/01/03 11:29:13;;;;;;;24.48;4.78;;;10.10;99.90;;;;;;4996246;28;20038;-85
2022/01/03 11:31:40;;;;;;;25.33;5.15;;;10.10;99.90;;;;;;5029795;28;20045;-86
2022/01/03 11:34:07;;;;;;;19.88;4.25;;;10.10;99.90;;;;;;5003039;28;20552;-86
2022/01/03 11:36:35;;;;;;;19.63;4.00;;;10.20;99.90;;;;;;5002753;28;20036;-85
2022/01/03 11:39:10;;;;;;;20.50;4.40;;;10.20;99.90;;;;;;5027435;28;20035;-85
2022/01/03 11:41:38;;;;;;;23.95;4.82;;;10.20;99.90;;;;;;5008172;28;20043;-85
2022/01/03 11:44:05;;;;;;;17.88;4.45;;;10.30;99.90;;;;;;5003511;28;20044;-84
2022/01/03 11:46:30;;;;;;;17.75;4.32;;;10.20;99.90;;;;;;5014037;28;21004;-84
2022/01/03 11:48:57;;;;;;;22.58;4.60;;;10.20;99.90;;;;;;4982446;28;20191;-84
2022/01/03 11:51:28;;;;;;;22.58;4.63;;;10.20;99.90;;;;;;4992027;28;20037;-84
2022/01/03 11:53:54;;;;;;;22.35;4.05;;;10.20;99.90;;;;;;4999092;28;20046;-84
2022/01/03 11:56:22;;;;;;;25.85;4.40;;;10.20;99.90;;;;;;4981959;28;20029;-87
2022/01/03 12:03:36;;;;;;;23.48;4.93;;;10.20;99.90;;;;;;4998326;28;20142;-89
2022/01/03 12:04:41;;;;;;;16.40;4.28;;;10.30;99.90;;;;;;5014031;28;20144;-86
2022/01/03 12:07:08;;;;;;;23.88;4.72;;;10.40;99.90;;;;;;4997219;28;20040;-86
2022/01/03 12:09:35;;;;;;;19.80;4.10;;;10.40;99.90;;;;;;4997494;28;20516;-88
2022/01/03 12:12:02;;;;;;;23.73;4.35;;;10.40;99.90;;;;;;5001863;28;20136;-91
2022/01/03 12:14:45;;;;;;;21.15;3.95;;;10.50;99.90;;;;;;5005955;28;20068;-88
2022/01/03 12:17:15;;;;;;;24.67;4.57;;;10.50;99.90;;;;;;5005722;28;20102;-87
2022/01/03 12:19:43;;;;;;;22.42;4.80;;;10.50;99.90;;;;;;5006688;28;20072;-84
2022/01/03 12:22:20;;;;;;;12.65;4.30;;;10.50;99.90;;;;;;5022389;28;20442;-87
2022/01/03 12:25:01;;;;;;;19.67;4.13;;;10.50;99.90;;;;;;5003758;28;20067;-90
2022/01/03 12:27:33;;;;;;;20.75;4.20;;;10.50;99.90;;;;;;5021201;28;20489;-87
2022/01/03 12:30:02;;;;;;;23.38;3.80;;;10.60;99.90;;;;;;5004649;28;20051;-87
2022/01/03 12:32:29;;;;;;;24.20;4.70;;;10.60;99.90;;;;;;5004818;28;20048;-87
2022/01/03 12:37:44;;;;;;;18.10;4.80;;;10.50;99.90;;;;;;5019654;28;20072;-90
2022/01/03 12:40:18;;;;;;;18.42;4.38;;;10.50;99.90;;;;;;5001354;28;20409;-87
2022/01/03 12:45:25;;;;;;;17.20;4.40;;;10.50;99.90;;;;;;5021588;28;20061;-90
2022/01/03 12:47:51;;;;;;;23.42;4.40;;;10.50;99.90;;;;;;5019284;28;20037;-89
2022/01/03 12:50:22;;;;;;;24.98;5.15;;;10.50;99.90;;;;;;4980066;28;20709;-90
2022/01/03 12:52:49;;;;;;;17.23;4.28;;;10.50;99.90;;;;;;5004262;28;20049;-90
2022/01/03 12:55:54;;;;;;;18.55;4.47;;;10.00;99.90;;;;;;4990435;28;20052;-90
2022/01/03 12:58:19;;;;;;;19.27;6.03;;;10.20;99.90;;;;;;4992322;28;20056;-89
2022/01/03 13:00:49;;;;;;;23.10;5.55;;;10.50;99.90;;;;;;5003799;28;20071;-87
2022/01/03 13:03:28;;;;;;;25.52;4.50;;;10.50;99.90;;;;;;5020496;28;20044;-87
2022/01/03 13:06:13;;;;;;;22.60;4.20;;;10.40;99.90;;;;;;5003062;28;20051;-87
2022/01/03 13:08:48;;;;;;;16.52;4.47;;;10.50;99.90;;;;;;5002880;28;20639;-88
2022/01/03 13:11:16;;;;;;;14.52;3.80;;;10.60;99.90;;;;;;5002577;28;20041;-86
2022/01/03 13:13:44;;;;;;;15.35;4.35;;;10.60;99.90;;;;;;5003597;28;20037;-87
2022/01/03 13:16:29;;;;;;;23.17;4.88;;;10.60;99.90;;;;;;5002206;28;20259;-87
2022/01/03 13:19:12;;;;;;;16.05;4.32;;;10.60;99.90;;;;;;5001999;28;20048;-84